Aeroporto :
LOGIN :

Iscrizione | Disclaimer

   EN    FR    IT 

 










Sommario :    VFR   VFR Marginale   IFR   IFR Intensivo   IFR Molto Intensivo
Visibilità : 
Base nubi : 
>= 8 km
>= 3000ft
5 / 8 km
1000 / 3000 ft
1500m / 5 km
500 / 1000 ft
800 / 1500m
200 / 500 ft
< 800m
< 200 ft
Simboli :   Temporali  Nebbia  Neve Forte  Precipitazioni Forti  Vento > 20 kt
SIGMETs :   Varie  Temporali  Ghiacco  Turbolenza  Onda orograficha  Ceneri Vulcaniche







- Altitudine del aeroporto : 20 ft


EBFN - Koksijde

ULTIMO METAR :
  • 160555Z AUTO 22009KT 9999 BKN032/// 15/13 Q1018 BLU

METARs OBSOLETI :
  • 160525Z AUTO 20007KT 9999 BKN012/// 14/12 Q1018 GRN
  • 160455Z AUTO 21005KT 9999 BKN014/// BKN067/// 14/12 Q1018 GRN
  • 160445Z AUTO 20005KT 9999 SCT014/// BKN033/// BKN050/// 14/12 Q1017 GRN
  • 160425Z AUTO 20004KT 9999 FEW015/// BKN017/// 13/12 Q1017 WHT
  • 160355Z AUTO 20004KT 9999 BKN018/// BKN080/// 13/12 Q1017 WHT
  • 160325Z AUTO 20003KT 9999 SCT056/// SCT064/// 13/11 Q1017 BLU

TAF TAF EBFN
Valido dal 16 a 07 ore il 16 a 16 ore UTC


160541Z 1607/1616 23010KT 9999 SCT030
TEMPO 1607/1608 20008KT BKN010
PROB40
TEMPO 1608/1616 6000 -SHRA SCT020 BKN090
Nessun NOTAM noto per questo aeroporto.



MetMap, La meteo Aeronautica in un colpo d'occhio ! - Copyright ORBIFLY Dicembre 2007 - Disclaimer

ORBIFLY MET'MAP TEAM :

Programmazione e sviluppo : Alexandra Zaïnal
Concezione e sviluppo : Baudouin d'Aumeries
Co-Programmazione e sviluppo : Marc-Olivier Méhu
Supporto tecnico e logistico : Manuel Goepfert
Aiuto per la traduzione : Arnaldo La Scala

Contatto : metmap@orbifly.com




FONTI E CREDITI :

   NOAA